createdAt,value
2023-01-26T00:00:35.487Z,10.80
2023-01-26T00:05:21.699Z,11.70
2023-01-26T00:09:53.875Z,9.80
2023-01-26T00:14:26.100Z,10.80
2023-01-26T00:18:53.513Z,10.00
2023-01-26T00:23:25.746Z,10.60
2023-01-26T00:27:58.523Z,9.90
2023-01-26T00:32:30.777Z,9.30
2023-01-26T00:37:03.019Z,10.50
2023-01-26T00:41:34.213Z,10.10
2023-01-26T00:46:06.914Z,10.40
2023-01-26T00:50:32.121Z,10.80
2023-01-26T00:54:57.515Z,9.70
2023-01-26T00:59:29.763Z,9.40
2023-01-26T01:04:04.339Z,9.20
2023-01-26T01:08:37.343Z,11.40
2023-01-26T01:13:10.109Z,10.80
2023-01-26T01:17:42.832Z,9.40
2023-01-26T01:22:08.220Z,10.00
2023-01-26T01:26:34.016Z,10.70
2023-01-26T01:31:06.695Z,9.30
2023-01-26T01:35:39.220Z,10.40
2023-01-26T01:40:12.564Z,8.00
2023-01-26T01:44:51.878Z,7.20
2023-01-26T01:49:35.836Z,9.80
2023-01-26T01:54:09.072Z,7.80
2023-01-26T01:58:41.617Z,8.30
2023-01-26T02:03:12.975Z,9.70
2023-01-26T02:07:48.754Z,9.20
2023-01-26T02:12:21.672Z,10.20
2023-01-26T02:16:55.007Z,9.00
2023-01-26T02:21:27.636Z,9.70
2023-01-26T02:26:00.841Z,7.50
2023-01-26T02:30:33.467Z,8.90
2023-01-26T02:35:06.665Z,7.70
2023-01-26T02:39:40.201Z,9.30
2023-01-26T02:44:12.503Z,9.20
2023-01-26T02:48:37.774Z,7.50
2023-01-26T02:53:10.352Z,8.40
2023-01-26T02:57:42.153Z,9.50
2023-01-26T03:02:21.050Z,6.50
2023-01-26T03:06:53.693Z,7.00
2023-01-26T03:11:26.413Z,8.50
2023-01-26T03:16:04.719Z,5.90
2023-01-26T03:20:36.815Z,7.50
2023-01-26T03:25:07.795Z,8.50
2023-01-26T03:29:40.182Z,8.60
2023-01-26T03:34:12.477Z,7.30
2023-01-26T03:38:45.195Z,8.40
2023-01-26T03:43:15.959Z,8.10
2023-01-26T03:47:47.975Z,8.60
2023-01-26T03:52:21.094Z,9.00
2023-01-26T03:56:54.726Z,9.00
2023-01-26T04:01:21.133Z,8.60
2023-01-26T04:05:52.780Z,8.10
2023-01-26T04:10:25.261Z,8.60
2023-01-26T04:14:52.554Z,7.70
2023-01-26T04:19:23.383Z,7.40
2023-01-26T04:23:41.803Z,8.60
2023-01-26T04:28:27.973Z,8.30
2023-01-26T04:33:00.674Z,7.90
2023-01-26T04:37:33.211Z,7.90
2023-01-26T04:42:05.852Z,8.30
2023-01-26T04:46:38.338Z,7.60
2023-01-26T04:51:11.204Z,9.00
2023-01-26T04:55:43.833Z,9.90
2023-01-26T05:00:17.016Z,9.70
2023-01-26T05:04:49.841Z,8.70
2023-01-26T05:09:22.854Z,7.80
2023-01-26T05:14:16.601Z,8.40
2023-01-26T05:19:03.131Z,9.30
2023-01-26T05:23:28.471Z,9.90
2023-01-26T05:28:13.237Z,10.20
2023-01-26T05:32:45.595Z,8.20
2023-01-26T05:37:10.139Z,10.20
2023-01-26T05:41:42.897Z,9.30
2023-01-26T05:46:14.559Z,9.30
2023-01-26T05:50:31.605Z,8.60
2023-01-26T05:55:02.686Z,9.00
2023-01-26T05:59:34.933Z,9.60
2023-01-26T06:04:21.250Z,8.00
2023-01-26T06:08:54.088Z,9.10
2023-01-26T06:13:38.896Z,8.60
2023-01-26T06:18:25.812Z,8.20
2023-01-26T06:22:58.866Z,8.10
2023-01-26T06:27:32.192Z,8.70
2023-01-26T06:32:05.029Z,9.20
2023-01-26T06:36:32.885Z,8.30
2023-01-26T06:41:05.856Z,9.00
2023-01-26T06:45:38.746Z,8.60
2023-01-26T06:50:12.284Z,7.70
2023-01-26T06:54:44.788Z,9.70
2023-01-26T06:59:11.948Z,7.70
2023-01-26T07:03:59.331Z,9.50
2023-01-26T07:08:32.139Z,9.30
2023-01-26T07:13:04.803Z,10.10
2023-01-26T07:17:37.613Z,9.30
2023-01-26T07:22:13.345Z,10.30
2023-01-26T07:26:45.862Z,11.10
2023-01-26T07:31:21.237Z,10.30
2023-01-26T07:35:53.658Z,9.90
2023-01-26T07:40:26.544Z,10.00
2023-01-26T07:45:18.001Z,10.80
2023-01-26T07:49:49.798Z,10.30
2023-01-26T07:54:22.325Z,10.70
2023-01-26T07:58:55.054Z,10.70
2023-01-26T08:03:23.703Z,11.70
2023-01-26T08:07:56.680Z,12.30
2023-01-26T08:12:29.403Z,12.70
2023-01-26T08:17:02.310Z,11.60
2023-01-26T08:21:35.452Z,11.50
2023-01-26T08:26:08.516Z,12.00
2023-01-26T08:30:54.437Z,12.10
2023-01-26T08:35:27.087Z,13.70
2023-01-26T08:39:59.341Z,12.20
2023-01-26T08:44:25.360Z,12.10
2023-01-26T08:49:00.230Z,12.50
2023-01-26T08:53:28.390Z,13.30
2023-01-26T08:58:00.973Z,13.80
2023-01-26T09:02:33.486Z,11.80
2023-01-26T09:07:05.933Z,12.20
2023-01-26T09:11:39.415Z,13.70
2023-01-26T09:16:11.933Z,11.10
2023-01-26T09:20:44.466Z,12.80
2023-01-26T09:25:16.890Z,13.30
2023-01-26T09:29:44.608Z,12.80
2023-01-26T09:34:17.012Z,13.30
2023-01-26T09:38:48.209Z,13.20
2023-01-26T09:43:26.551Z,13.70
2023-01-26T09:47:59.169Z,13.30
2023-01-26T09:53:07.636Z,13.80
2023-01-26T09:57:37.650Z,14.60
2023-01-26T10:02:25.391Z,13.70
2023-01-26T10:07:03.584Z,16.40
2023-01-26T10:11:34.732Z,15.40
2023-01-26T10:16:00.938Z,14.60
2023-01-26T10:20:47.473Z,13.90
2023-01-26T10:25:19.983Z,15.90
2023-01-26T10:29:52.337Z,14.30
2023-01-26T10:34:36.789Z,15.10
2023-01-26T10:39:15.415Z,14.00
2023-01-26T10:44:01.999Z,14.10
2023-01-26T10:48:37.341Z,15.80
2023-01-26T10:53:03.117Z,13.50
2023-01-26T10:57:38.399Z,14.50
2023-01-26T11:02:10.740Z,15.80
2023-01-26T11:06:46.139Z,14.70
2023-01-26T11:16:10.275Z,14.90
2023-01-26T11:21:04.770Z,15.60
2023-01-26T11:25:47.550Z,14.60
2023-01-26T11:30:17.975Z,15.70
2023-01-26T11:34:52.711Z,16.60
2023-01-26T11:39:57.178Z,17.10
2023-01-26T11:44:42.440Z,17.30
2023-01-26T11:49:21.597Z,17.20
2023-01-26T11:53:52.737Z,16.10
2023-01-26T11:58:22.537Z,16.80
2023-01-26T12:02:55.717Z,15.40
2023-01-26T12:07:28.065Z,16.30
2023-01-26T12:11:55.316Z,17.00
2023-01-26T12:16:36.877Z,17.00
2023-01-26T12:21:26.221Z,16.90
2023-01-26T12:26:02.117Z,17.20
2023-01-26T12:30:32.203Z,17.80
2023-01-26T12:35:08.379Z,19.60
2023-01-26T12:39:46.632Z,17.80
2023-01-26T12:44:20.540Z,19.50
2023-01-26T12:48:55.760Z,18.20
2023-01-26T12:53:28.478Z,18.40
2023-01-26T12:58:01.156Z,19.60
2023-01-26T13:02:26.064Z,15.90
2023-01-26T13:07:02.224Z,19.30
2023-01-26T13:11:43.791Z,17.30
2023-01-26T13:16:19.332Z,17.40
2023-01-26T13:21:08.519Z,17.20
2023-01-26T13:25:38.718Z,17.50
2023-01-26T13:30:27.622Z,18.90
2023-01-26T13:35:00.233Z,17.50
2023-01-26T13:39:34.231Z,17.90
2023-01-26T13:44:10.098Z,18.70
2023-01-26T13:48:42.766Z,17.00
2023-01-26T13:53:18.537Z,17.90
2023-01-26T13:58:02.916Z,19.20
2023-01-26T14:02:35.666Z,20.60
2023-01-26T14:07:08.818Z,19.90
2023-01-26T14:11:44.319Z,17.90
2023-01-26T14:16:38.508Z,16.00
2023-01-26T14:21:14.324Z,19.10
2023-01-26T14:25:50.338Z,17.90
2023-01-26T14:30:23.295Z,16.30
2023-01-26T14:34:56.270Z,18.50
2023-01-26T14:39:26.668Z,17.80
2023-01-26T14:44:00.184Z,15.40
2023-01-26T14:48:32.999Z,17.20
2023-01-26T14:53:04.124Z,18.30
2023-01-26T14:57:35.174Z,18.50
2023-01-26T15:02:07.666Z,17.00
2023-01-26T15:06:38.876Z,18.70
2023-01-26T15:11:16.227Z,18.90
2023-01-26T15:15:54.661Z,17.00
2023-01-26T15:20:41.801Z,18.90
2023-01-26T15:25:14.316Z,17.70
2023-01-26T15:29:47.144Z,16.00
2023-01-26T15:34:25.411Z,18.10
2023-01-26T15:39:01.376Z,19.60
2023-01-26T15:43:46.719Z,19.10
2023-01-26T15:48:19.280Z,18.90
2023-01-26T15:52:55.121Z,19.00
2023-01-26T15:57:28.321Z,18.50
2023-01-26T16:02:03.439Z,16.40
2023-01-26T16:06:36.118Z,17.50
2023-01-26T16:11:23.488Z,18.20
2023-01-26T16:15:54.660Z,18.90
2023-01-26T16:20:27.150Z,18.70
2023-01-26T16:24:59.942Z,17.60
2023-01-26T16:29:27.540Z,19.10
2023-01-26T16:34:00.793Z,21.30
2023-01-26T16:38:27.270Z,20.60
2023-01-26T16:42:59.863Z,20.50
2023-01-26T16:47:32.680Z,19.20
2023-01-26T16:52:11.770Z,18.60
2023-01-26T16:56:45.439Z,19.90
2023-01-26T17:01:32.783Z,19.90
2023-01-26T17:06:00.347Z,19.60
2023-01-26T17:10:33.135Z,19.80
2023-01-26T17:14:57.178Z,20.30
2023-01-26T17:19:29.548Z,19.50
2023-01-26T17:24:01.983Z,18.10
2023-01-26T17:28:33.188Z,18.10
2023-01-26T17:33:24.770Z,15.70
2023-01-26T17:37:57.421Z,17.30
2023-01-26T17:42:48.415Z,15.90
2023-01-26T17:47:39.051Z,15.30
2023-01-26T17:52:10.889Z,14.80
2023-01-26T17:56:43.563Z,13.00
2023-01-26T18:01:11.732Z,12.10
2023-01-26T18:05:45.075Z,12.40
2023-01-26T18:10:17.386Z,13.10
2023-01-26T18:14:49.845Z,12.00
2023-01-26T18:19:22.197Z,11.60
2023-01-26T18:23:55.851Z,11.30
2023-01-26T18:28:28.604Z,10.40
2023-01-26T18:33:01.306Z,10.80
2023-01-26T18:37:34.217Z,12.10
2023-01-26T18:42:06.639Z,12.10
2023-01-26T18:46:42.027Z,12.60
2023-01-26T18:51:14.640Z,12.80
2023-01-26T18:55:47.754Z,12.10
2023-01-26T19:00:20.384Z,11.80
2023-01-26T19:04:53.142Z,10.90
2023-01-26T19:09:19.064Z,10.50
2023-01-26T19:13:52.218Z,10.50
2023-01-26T19:18:20.206Z,9.70
2023-01-26T19:22:53.648Z,10.30
2023-01-26T19:27:27.143Z,9.20
2023-01-26T19:32:03.261Z,10.50
2023-01-26T19:36:39.408Z,9.30
2023-01-26T19:41:07.116Z,9.50
2023-01-26T19:45:34.471Z,9.00
2023-01-26T19:50:06.740Z,10.70
2023-01-26T19:54:39.173Z,8.40
2023-01-26T19:59:11.465Z,9.60
2023-01-26T20:03:44.604Z,9.30
2023-01-26T20:08:17.662Z,8.10
2023-01-26T20:12:50.435Z,8.30
2023-01-26T20:17:17.897Z,8.60
2023-01-26T20:21:50.571Z,7.80
2023-01-26T20:26:17.804Z,8.50
2023-01-26T20:30:50.746Z,8.80
2023-01-26T20:35:23.584Z,9.70
2023-01-26T20:39:56.836Z,10.00
2023-01-26T20:44:30.837Z,9.40
2023-01-26T20:49:03.108Z,10.50
2023-01-26T20:53:36.152Z,10.10
2023-01-26T20:58:09.649Z,9.20
2023-01-26T21:02:36.691Z,8.80
2023-01-26T21:07:09.377Z,7.90
2023-01-26T21:11:42.276Z,9.50
2023-01-26T21:16:17.312Z,9.20
2023-01-26T21:20:50.275Z,8.40
2023-01-26T21:25:23.434Z,9.00
2023-01-26T21:29:40.937Z,10.30
2023-01-26T21:34:13.955Z,8.50
2023-01-26T21:38:47.037Z,7.60
2023-01-26T21:43:19.879Z,8.50
2023-01-26T21:47:52.458Z,7.50
2023-01-26T21:52:23.701Z,7.10
2023-01-26T21:56:39.310Z,7.30
2023-01-26T22:01:12.155Z,7.70
2023-01-26T22:05:39.199Z,7.40
2023-01-26T22:10:31.134Z,8.10
2023-01-26T22:15:03.114Z,6.90
2023-01-26T22:24:23.835Z,10.30
2023-01-26T22:28:51.436Z,8.30
2023-01-26T22:33:24.274Z,8.90
2023-01-26T22:37:56.892Z,8.10
2023-01-26T22:42:29.587Z,7.00
2023-01-26T22:47:05.481Z,6.10
2023-01-26T22:51:38.086Z,6.20
2023-01-26T22:56:11.375Z,4.00
2023-01-26T23:00:44.416Z,1.40
2023-01-26T23:05:19.008Z,0.50
2023-01-26T23:09:45.935Z,0.80
2023-01-26T23:14:32.119Z,0.90
2023-01-26T23:19:04.362Z,1.30
2023-01-26T23:23:36.557Z,0.60
2023-01-26T23:28:09.494Z,0.80
2023-01-26T23:32:42.169Z,0.40
2023-01-26T23:37:15.249Z,0.70
2023-01-26T23:41:40.475Z,0.60
2023-01-26T23:46:13.583Z,0.50
2023-01-26T23:50:46.615Z,0.30
2023-01-26T23:55:19.590Z,0.70
2023-01-26T23:59:44.758Z,0.40
